createdAt,value
2019-02-26T00:02:17.399Z,7.23
2019-02-26T00:04:54.081Z,7.20
2019-02-26T00:07:30.427Z,7.20
2019-02-26T00:10:09.168Z,7.14
2019-02-26T00:12:43.745Z,7.14
2019-02-26T00:15:18.291Z,7.17
2019-02-26T00:17:53.013Z,7.06
2019-02-26T00:20:29.633Z,6.97
2019-02-26T00:23:04.371Z,6.89
2019-02-26T00:25:38.987Z,6.77
2019-02-26T00:28:15.370Z,6.57
2019-02-26T00:30:49.700Z,6.57
2019-02-26T00:33:25.089Z,6.60
2019-02-26T00:36:00.128Z,6.72
2019-02-26T00:38:35.487Z,6.94
2019-02-26T00:41:10.962Z,6.94
2019-02-26T00:43:43.911Z,6.93
2019-02-26T00:46:18.153Z,6.86
2019-02-26T00:48:52.692Z,6.82
2019-02-26T00:51:27.118Z,6.91
2019-02-26T00:54:02.008Z,6.91
2019-02-26T00:56:38.613Z,6.95
2019-02-26T00:59:13.864Z,7.01
2019-02-26T01:01:48.235Z,7.11
2019-02-26T01:04:22.903Z,7.06
2019-02-26T01:06:57.318Z,6.95
2019-02-26T01:09:33.972Z,6.92
2019-02-26T01:12:09.232Z,6.96
2019-02-26T01:14:45.786Z,6.99
2019-02-26T01:17:20.075Z,7.08
2019-02-26T01:19:54.792Z,7.12
2019-02-26T01:22:31.101Z,7.11
2019-02-26T01:25:07.415Z,7.05
2019-02-26T01:27:43.599Z,7.02
2019-02-26T01:30:21.179Z,6.99
2019-02-26T01:32:57.557Z,7.08
2019-02-26T01:35:30.739Z,7.04
2019-02-26T01:38:07.617Z,6.88
2019-02-26T01:40:44.192Z,6.88
2019-02-26T01:43:18.114Z,6.78
2019-02-26T01:45:54.942Z,6.72
2019-02-26T01:48:29.915Z,6.61
2019-02-26T01:51:05.085Z,6.74
2019-02-26T01:53:39.604Z,6.75
2019-02-26T01:56:13.947Z,6.75
2019-02-26T01:58:56.144Z,6.69
2019-02-26T02:01:23.856Z,6.64
2019-02-26T02:03:58.970Z,6.62
2019-02-26T02:06:34.924Z,6.76
2019-02-26T02:09:13.348Z,6.76
2019-02-26T02:11:46.296Z,6.62
2019-02-26T02:14:20.657Z,6.50
2019-02-26T02:16:55.288Z,6.37
2019-02-26T02:19:30.785Z,6.30
2019-02-26T02:22:07.000Z,6.40
2019-02-26T02:24:43.612Z,6.55
2019-02-26T02:27:19.926Z,6.55
2019-02-26T02:29:55.442Z,6.63
2019-02-26T02:32:32.335Z,6.55
2019-02-26T02:35:07.425Z,6.55
2019-02-26T02:37:42.890Z,6.55
2019-02-26T02:40:15.868Z,6.64
2019-02-26T02:42:49.951Z,6.69
2019-02-26T02:45:23.291Z,6.76
2019-02-26T02:48:00.345Z,6.90
2019-02-26T02:50:33.744Z,6.90
2019-02-26T02:53:08.146Z,6.98
2019-02-26T02:55:44.277Z,6.74
2019-02-26T02:58:20.761Z,6.57
2019-02-26T03:00:57.125Z,6.39
2019-02-26T03:03:31.145Z,6.35
2019-02-26T03:06:07.603Z,6.46
2019-02-26T03:08:42.382Z,6.51
2019-02-26T03:11:17.953Z,6.50
2019-02-26T03:13:53.837Z,6.53
2019-02-26T03:16:27.944Z,6.54
2019-02-26T03:19:04.164Z,6.68
2019-02-26T03:21:38.335Z,6.68
2019-02-26T03:24:12.797Z,6.60
2019-02-26T03:26:46.962Z,6.34
2019-02-26T03:29:21.289Z,6.14
2019-02-26T03:31:58.407Z,5.99
2019-02-26T03:34:32.953Z,5.99
2019-02-26T03:37:08.345Z,6.13
2019-02-26T03:39:43.684Z,6.22
2019-02-26T03:42:23.963Z,6.14
2019-02-26T03:44:59.665Z,6.21
2019-02-26T03:47:34.950Z,6.21
2019-02-26T03:50:10.967Z,6.27
2019-02-26T03:52:47.085Z,6.18
2019-02-26T03:55:21.450Z,5.87
2019-02-26T03:57:57.019Z,5.87
2019-02-26T04:00:34.842Z,5.80
2019-02-26T04:03:11.759Z,5.73
2019-02-26T04:05:43.696Z,5.65
2019-02-26T04:08:19.968Z,5.69
2019-02-26T04:10:55.950Z,5.53
2019-02-26T04:13:30.341Z,5.54
2019-02-26T04:16:04.792Z,5.54
2019-02-26T04:18:37.782Z,5.63
2019-02-26T04:21:12.934Z,5.54
2019-02-26T04:23:48.798Z,5.44
2019-02-26T04:26:46.605Z,5.41
2019-02-26T04:30:05.913Z,5.49
2019-02-26T04:33:20.906Z,5.41
2019-02-26T04:38:43.312Z,5.45
2019-02-26T04:42:03.319Z,5.42
2019-02-26T04:45:59.405Z,5.46
2019-02-26T04:48:37.303Z,5.32
2019-02-26T04:51:11.693Z,5.32
2019-02-26T04:53:48.603Z,5.26
2019-02-26T04:56:21.946Z,5.22
2019-02-26T04:58:55.300Z,5.20
2019-02-26T05:01:29.358Z,5.09
2019-02-26T05:04:03.951Z,5.09
2019-02-26T05:06:37.956Z,5.05
2019-02-26T05:09:10.725Z,5.03
2019-02-26T05:11:45.028Z,5.03
2019-02-26T05:14:24.290Z,5.24
2019-02-26T05:17:05.044Z,5.24
2019-02-26T05:19:42.430Z,5.28
2019-02-26T05:22:15.905Z,5.28
2019-02-26T05:24:50.852Z,5.22
2019-02-26T05:27:26.361Z,5.22
2019-02-26T05:30:00.746Z,5.10
2019-02-26T05:32:35.486Z,5.10
2019-02-26T05:35:11.616Z,5.10
2019-02-26T05:37:46.287Z,5.15
2019-02-26T05:40:22.273Z,5.04
2019-02-26T05:42:58.835Z,4.89
2019-02-26T05:45:35.636Z,4.90
2019-02-26T05:48:07.892Z,4.99
2019-02-26T05:50:44.595Z,5.04
2019-02-26T05:53:16.873Z,5.15
2019-02-26T05:55:51.187Z,5.22
2019-02-26T05:58:25.684Z,5.25
2019-02-26T06:00:59.947Z,5.25
2019-02-26T06:03:32.721Z,5.27
2019-02-26T06:06:06.941Z,5.26
2019-02-26T06:08:41.250Z,5.24
2019-02-26T06:11:17.035Z,5.24
2019-02-26T06:13:51.651Z,5.30
2019-02-26T06:16:27.141Z,5.47
2019-02-26T06:19:01.951Z,5.50
2019-02-26T06:21:39.644Z,5.46
2019-02-26T06:24:10.846Z,5.47
2019-02-26T06:26:45.533Z,5.45
2019-02-26T06:30:04.151Z,5.46
2019-02-26T06:32:40.161Z,5.49
2019-02-26T06:35:19.060Z,5.50
2019-02-26T06:37:52.636Z,5.46
2019-02-26T06:40:26.945Z,5.46
2019-02-26T06:42:59.659Z,5.50
2019-02-26T06:45:35.585Z,5.51
2019-02-26T06:48:12.557Z,5.54
2019-02-26T06:50:46.078Z,5.54
2019-02-26T06:53:21.523Z,5.59
2019-02-26T06:55:56.110Z,5.59
2019-02-26T06:58:31.159Z,5.64
2019-02-26T07:01:07.150Z,5.65
2019-02-26T07:03:41.411Z,5.71
2019-02-26T07:06:18.506Z,5.71
2019-02-26T07:08:53.468Z,5.88
2019-02-26T07:11:30.511Z,6.14
2019-02-26T07:14:05.660Z,6.24
2019-02-26T07:16:40.504Z,6.46
2019-02-26T07:19:16.613Z,6.70
2019-02-26T07:21:51.279Z,6.80
2019-02-26T07:24:27.154Z,6.96
2019-02-26T07:27:02.460Z,7.20
2019-02-26T07:29:42.460Z,7.99
2019-02-26T07:32:17.915Z,7.99
2019-02-26T07:34:52.686Z,8.30
2019-02-26T07:37:28.615Z,8.95
2019-02-26T07:40:05.237Z,9.68
2019-02-26T07:42:41.343Z,10.95
2019-02-26T07:45:19.733Z,11.35
2019-02-26T07:47:54.069Z,11.35
2019-02-26T07:50:31.280Z,12.00
2019-02-26T07:53:05.118Z,12.15
2019-02-26T07:55:42.399Z,13.14
2019-02-26T07:58:17.880Z,13.65
2019-02-26T08:00:52.427Z,13.73
2019-02-26T08:03:29.287Z,13.73
2019-02-26T08:06:06.529Z,13.36
2019-02-26T08:08:40.256Z,13.55
2019-02-26T08:11:15.058Z,13.55
2019-02-26T08:13:49.868Z,12.93
2019-02-26T08:16:27.497Z,13.52
2019-02-26T08:19:01.493Z,14.71
2019-02-26T08:21:35.882Z,14.71
2019-02-26T08:24:10.624Z,15.69
2019-02-26T08:26:45.347Z,16.13
2019-02-26T08:29:20.926Z,16.97
2019-02-26T08:31:56.880Z,17.88
2019-02-26T08:34:29.705Z,18.35
2019-02-26T08:37:04.238Z,18.80
2019-02-26T08:39:38.758Z,19.52
2019-02-26T08:42:12.687Z,20.15
2019-02-26T08:44:48.669Z,20.76
2019-02-26T08:47:23.495Z,21.31
2019-02-26T08:49:58.893Z,21.42
2019-02-26T08:52:34.114Z,21.65
2019-02-26T08:55:10.732Z,21.86
2019-02-26T08:57:46.317Z,21.86
2019-02-26T09:00:21.107Z,22.30
2019-02-26T09:02:56.628Z,22.30
2019-02-26T09:05:33.995Z,22.93
2019-02-26T09:08:08.483Z,23.01
2019-02-26T09:10:43.753Z,23.00
2019-02-26T09:13:18.921Z,23.12
2019-02-26T09:15:55.140Z,23.20
2019-02-26T09:18:31.510Z,23.20
2019-02-26T09:21:07.084Z,23.44
2019-02-26T09:23:41.254Z,23.47
2019-02-26T09:26:15.668Z,23.08
2019-02-26T09:28:50.500Z,22.98
2019-02-26T09:31:26.065Z,23.24
2019-02-26T09:34:00.389Z,23.08
2019-02-26T09:36:34.935Z,22.97
2019-02-26T09:39:10.660Z,22.97
2019-02-26T09:41:45.939Z,23.03
2019-02-26T09:44:20.275Z,22.48
2019-02-26T09:46:55.350Z,22.04
2019-02-26T09:49:33.155Z,21.55
2019-02-26T09:52:06.885Z,21.18
2019-02-26T09:54:42.938Z,21.07
2019-02-26T09:57:18.029Z,20.61
2019-02-26T09:59:55.266Z,20.04
2019-02-26T10:02:28.885Z,19.50
2019-02-26T10:05:01.663Z,19.03
2019-02-26T10:07:38.640Z,19.19
2019-02-26T10:10:14.168Z,19.56
2019-02-26T10:12:48.595Z,19.82
2019-02-26T10:15:22.936Z,19.82
2019-02-26T10:17:59.586Z,19.83
2019-02-26T10:20:33.684Z,19.35
2019-02-26T10:23:08.107Z,18.96
2019-02-26T10:25:47.329Z,18.61
2019-02-26T10:28:22.395Z,18.61
2019-02-26T10:30:59.625Z,18.26
2019-02-26T10:33:35.917Z,18.22
2019-02-26T10:36:11.043Z,18.19
2019-02-26T10:38:46.340Z,18.03
2019-02-26T10:41:21.237Z,18.00
2019-02-26T10:43:55.707Z,18.24
2019-02-26T10:46:32.148Z,18.47
2019-02-26T10:49:04.688Z,18.56
2019-02-26T10:51:42.396Z,18.31
2019-02-26T10:54:17.828Z,18.27
2019-02-26T10:56:49.957Z,18.52
2019-02-26T10:59:24.207Z,18.85
2019-02-26T11:02:00.751Z,18.93
2019-02-26T11:04:38.099Z,18.93
2019-02-26T11:07:11.545Z,19.13
2019-02-26T11:09:49.987Z,19.29
2019-02-26T11:12:25.173Z,19.50
2019-02-26T11:15:01.426Z,19.78
2019-02-26T11:17:35.767Z,20.24
2019-02-26T11:20:09.661Z,21.06
2019-02-26T11:22:44.869Z,21.81
2019-02-26T11:25:21.335Z,22.81
2019-02-26T11:27:54.922Z,23.60
2019-02-26T11:30:32.107Z,25.95
2019-02-26T11:33:07.993Z,25.75
2019-02-26T11:35:43.892Z,24.76
2019-02-26T11:38:19.594Z,24.76
2019-02-26T11:40:54.286Z,24.27
2019-02-26T11:43:29.956Z,23.46
2019-02-26T11:46:06.853Z,22.82
2019-02-26T11:48:41.893Z,22.82
2019-02-26T11:51:17.717Z,23.65
2019-02-26T11:53:52.353Z,24.51
2019-02-26T11:56:26.901Z,24.51
2019-02-26T11:59:01.282Z,23.93
2019-02-26T12:01:37.012Z,24.57
2019-02-26T12:04:14.266Z,25.53
2019-02-26T12:06:48.288Z,26.23
2019-02-26T12:09:23.060Z,26.10
2019-02-26T12:11:58.522Z,26.49
2019-02-26T12:14:34.676Z,26.49
2019-02-26T12:17:10.290Z,27.95
2019-02-26T12:19:46.108Z,27.95
2019-02-26T12:22:22.597Z,27.43
2019-02-26T12:24:58.892Z,27.94
2019-02-26T12:27:36.016Z,27.42
2019-02-26T12:30:18.210Z,27.42
2019-02-26T12:32:55.154Z,27.45
2019-02-26T12:35:33.005Z,27.73
2019-02-26T12:38:17.476Z,27.73
2019-02-26T12:40:44.710Z,27.04
2019-02-26T12:43:19.248Z,26.25
2019-02-26T12:45:55.960Z,27.07
2019-02-26T12:48:30.213Z,28.87
2019-02-26T12:51:07.520Z,29.88
2019-02-26T12:53:50.002Z,29.88
2019-02-26T12:56:24.343Z,28.63
2019-02-26T12:59:00.977Z,28.63
2019-02-26T13:01:36.218Z,27.95
2019-02-26T13:04:12.896Z,28.39
2019-02-26T13:06:49.260Z,28.39
2019-02-26T13:09:26.796Z,28.32
2019-02-26T13:12:02.780Z,28.54
2019-02-26T13:14:36.953Z,28.54
2019-02-26T13:17:13.887Z,30.09
2019-02-26T13:19:49.194Z,29.36
2019-02-26T13:22:23.720Z,30.06
2019-02-26T13:24:56.871Z,30.06
2019-02-26T13:27:30.245Z,30.37
2019-02-26T13:30:05.127Z,31.42
2019-02-26T13:32:55.098Z,30.37
2019-02-26T13:35:16.278Z,27.75
2019-02-26T13:37:51.782Z,26.28
2019-02-26T13:40:25.095Z,24.98
2019-02-26T13:45:35.284Z,22.54
2019-02-26T13:48:10.283Z,21.43
2019-02-26T13:50:44.947Z,20.64
2019-02-26T13:53:19.326Z,19.94
2019-02-26T13:55:53.950Z,19.31
2019-02-26T13:58:28.288Z,18.58
2019-02-26T14:01:03.115Z,17.65
2019-02-26T14:03:37.794Z,17.65
2019-02-26T14:06:12.286Z,17.25
2019-02-26T14:08:47.272Z,17.00
2019-02-26T14:11:21.944Z,16.57
2019-02-26T14:13:56.702Z,16.09
2019-02-26T14:16:32.645Z,16.09
2019-02-26T14:19:06.150Z,15.96
2019-02-26T14:21:40.766Z,15.84
2019-02-26T14:24:14.098Z,15.75
2019-02-26T14:26:48.624Z,15.53
2019-02-26T14:29:23.267Z,15.44
2019-02-26T14:31:58.117Z,15.44
2019-02-26T14:37:17.716Z,15.48
2019-02-26T14:39:51.054Z,15.48
2019-02-26T14:42:25.288Z,15.37
2019-02-26T14:44:59.919Z,15.37
2019-02-26T14:47:34.424Z,15.32
2019-02-26T14:50:11.599Z,15.45
2019-02-26T14:52:46.199Z,15.59
2019-02-26T14:55:21.300Z,15.70
2019-02-26T14:57:55.920Z,15.70
2019-02-26T15:00:30.339Z,15.73
2019-02-26T15:03:05.331Z,15.72
2019-02-26T15:05:40.124Z,15.68
2019-02-26T15:08:14.675Z,15.45
2019-02-26T15:10:49.467Z,15.45
2019-02-26T15:13:25.536Z,15.44
2019-02-26T15:16:00.282Z,15.42
2019-02-26T15:18:35.797Z,15.33
2019-02-26T15:21:10.443Z,15.39
2019-02-26T15:23:45.240Z,15.39
2019-02-26T15:26:19.883Z,15.46
2019-02-26T15:28:54.274Z,15.45
2019-02-26T15:31:28.958Z,15.27
2019-02-26T15:34:03.684Z,15.39
2019-02-26T15:36:39.917Z,15.39
2019-02-26T15:39:14.282Z,15.38
2019-02-26T15:41:50.552Z,15.32
2019-02-26T15:44:26.131Z,15.28
2019-02-26T15:47:02.367Z,15.24
2019-02-26T15:49:37.763Z,15.24
2019-02-26T15:52:13.118Z,15.15
2019-02-26T15:58:03.031Z,15.23
2019-02-26T16:00:37.966Z,14.95
2019-02-26T16:03:13.293Z,14.80
2019-02-26T16:05:47.945Z,14.80
2019-02-26T16:08:23.084Z,14.79
2019-02-26T16:10:57.376Z,14.62
2019-02-26T16:13:32.124Z,14.58
2019-02-26T16:16:07.263Z,14.55
2019-02-26T16:18:42.309Z,14.54
2019-02-26T16:21:19.305Z,14.54
2019-02-26T16:23:53.355Z,14.56
2019-02-26T16:26:33.945Z,14.67
2019-02-26T16:29:08.420Z,14.63
2019-02-26T16:31:43.271Z,14.56
2019-02-26T16:34:19.934Z,14.49
2019-02-26T16:36:55.369Z,14.49
2019-02-26T16:39:30.274Z,14.43
2019-02-26T16:42:05.282Z,14.28
2019-02-26T16:44:40.963Z,14.28
2019-02-26T16:47:15.794Z,14.28
2019-02-26T16:49:51.774Z,14.25
2019-02-26T16:52:27.752Z,14.25
2019-02-26T16:55:05.292Z,14.12
2019-02-26T16:57:40.130Z,14.02
2019-02-26T17:00:18.346Z,13.98
2019-02-26T17:02:54.280Z,14.06
2019-02-26T17:05:30.122Z,14.07
2019-02-26T17:08:04.939Z,14.09
2019-02-26T17:10:39.433Z,13.99
2019-02-26T17:13:14.957Z,13.96
2019-02-26T17:15:49.468Z,13.86
2019-02-26T17:18:24.286Z,13.80
2019-02-26T17:20:58.958Z,13.85
2019-02-26T17:23:34.794Z,13.84
2019-02-26T17:26:11.888Z,13.96
2019-02-26T17:28:44.867Z,13.96
2019-02-26T17:31:19.316Z,13.97
2019-02-26T17:33:54.166Z,13.99
2019-02-26T17:36:29.858Z,13.79
2019-02-26T17:39:04.282Z,13.62
2019-02-26T17:41:39.693Z,13.56
2019-02-26T17:44:14.272Z,13.56
2019-02-26T17:46:50.758Z,13.45
2019-02-26T17:49:26.283Z,13.31
2019-02-26T17:52:01.285Z,13.35
2019-02-26T17:54:36.937Z,13.41
2019-02-26T17:57:11.939Z,13.48
2019-02-26T17:59:52.746Z,13.49
2019-02-26T18:02:27.982Z,13.49
2019-02-26T18:05:04.684Z,13.29
2019-02-26T18:08:23.672Z,13.29
2019-02-26T18:10:58.256Z,13.34
2019-02-26T18:13:33.121Z,13.45
2019-02-26T18:16:09.401Z,13.45
2019-02-26T18:18:44.084Z,13.36
2019-02-26T18:21:18.654Z,13.13
2019-02-26T18:23:54.338Z,13.13
2019-02-26T18:26:30.288Z,13.04
2019-02-26T18:29:07.502Z,13.07
2019-02-26T18:31:42.944Z,13.19
2019-02-26T18:34:17.755Z,13.02
2019-02-26T18:36:52.283Z,13.02
2019-02-26T18:39:28.947Z,12.94
2019-02-26T18:42:07.567Z,12.86
2019-02-26T18:44:41.276Z,12.86
2019-02-26T18:47:15.947Z,12.84
2019-02-26T18:49:50.377Z,12.85
2019-02-26T18:52:27.902Z,12.71
2019-02-26T18:55:03.344Z,12.71
2019-02-26T18:57:38.945Z,12.52
2019-02-26T19:00:17.369Z,12.31
2019-02-26T19:02:53.412Z,12.21
2019-02-26T19:05:28.284Z,12.21
2019-02-26T19:08:05.803Z,12.20
2019-02-26T19:10:41.283Z,12.15
2019-02-26T19:13:15.942Z,12.09
2019-02-26T19:15:51.426Z,12.06
2019-02-26T19:18:26.271Z,11.99
2019-02-26T19:21:01.291Z,11.92
2019-02-26T19:23:36.895Z,11.83
2019-02-26T19:26:13.568Z,11.63
2019-02-26T19:28:47.946Z,11.42
2019-02-26T19:31:21.351Z,11.42
2019-02-26T19:33:55.996Z,11.36
2019-02-26T19:36:30.957Z,11.25
2019-02-26T19:39:07.843Z,11.13
2019-02-26T19:41:45.478Z,11.13
2019-02-26T19:44:20.926Z,11.00
2019-02-26T19:46:55.468Z,10.83
2019-02-26T19:49:30.282Z,10.83
2019-02-26T19:52:05.282Z,10.66
2019-02-26T19:54:42.037Z,10.52
2019-02-26T19:57:24.681Z,10.54
2019-02-26T20:00:04.098Z,10.54
2019-02-26T20:02:39.621Z,10.47
2019-02-26T20:05:22.289Z,10.49
2019-02-26T20:07:57.723Z,10.49
2019-02-26T20:10:31.034Z,10.51
2019-02-26T20:13:04.200Z,10.48
2019-02-26T20:15:38.964Z,10.48
2019-02-26T20:18:20.720Z,10.46
2019-02-26T20:20:51.940Z,10.41
2019-02-26T20:23:26.604Z,10.23
2019-02-26T20:26:03.510Z,10.18
2019-02-26T20:28:42.102Z,10.20
2019-02-26T20:31:16.572Z,10.07
2019-02-26T20:33:57.353Z,10.07
2019-02-26T20:36:32.279Z,10.03
2019-02-26T20:39:08.486Z,10.00
2019-02-26T20:41:43.007Z,9.98
2019-02-26T20:44:15.866Z,9.95
2019-02-26T20:46:50.119Z,9.89
2019-02-26T20:49:25.676Z,9.80
2019-02-26T20:52:00.313Z,9.80
2019-02-26T20:54:35.735Z,9.78
2019-02-26T20:57:10.283Z,9.71
2019-02-26T20:59:44.725Z,9.67
2019-02-26T21:02:21.137Z,9.58
2019-02-26T21:04:55.892Z,9.48
2019-02-26T21:07:30.298Z,9.48
2019-02-26T21:10:06.976Z,9.45
2019-02-26T21:12:43.336Z,9.42
2019-02-26T21:15:19.878Z,9.38
2019-02-26T21:17:57.771Z,9.31
2019-02-26T21:20:38.864Z,9.27
2019-02-26T21:23:15.799Z,9.26
2019-02-26T21:25:49.056Z,9.19
2019-02-26T21:28:33.758Z,9.10
2019-02-26T21:31:07.214Z,9.10
2019-02-26T21:33:41.989Z,9.02
2019-02-26T21:36:18.633Z,8.92
2019-02-26T21:38:59.352Z,8.92
2019-02-26T21:41:38.700Z,8.81
2019-02-26T21:45:06.610Z,8.81
2019-02-26T21:47:40.483Z,8.79
2019-02-26T21:50:15.316Z,8.76
2019-02-26T21:53:05.545Z,8.77
2019-02-26T21:55:27.737Z,8.74
2019-02-26T21:58:16.960Z,8.68
2019-02-26T22:01:01.312Z,8.62
2019-02-26T22:03:39.295Z,8.57
2019-02-26T22:06:19.339Z,8.57
2019-02-26T22:08:57.105Z,8.53
2019-02-26T22:11:35.325Z,8.49
2019-02-26T22:14:10.256Z,8.43
2019-02-26T22:16:44.957Z,8.39
2019-02-26T22:19:19.349Z,8.30
2019-02-26T22:21:54.458Z,8.30
2019-02-26T22:24:31.302Z,8.25
2019-02-26T22:27:08.803Z,8.21
2019-02-26T22:29:42.120Z,8.18
2019-02-26T22:32:18.334Z,8.11
2019-02-26T22:34:53.593Z,8.08
2019-02-26T22:37:30.782Z,8.06
2019-02-26T22:40:11.961Z,7.95
2019-02-26T22:42:47.715Z,7.93
2019-02-26T22:45:27.614Z,7.93
2019-02-26T22:47:59.706Z,7.91
2019-02-26T22:50:34.354Z,7.85
2019-02-26T22:53:10.475Z,7.86
2019-02-26T22:55:54.512Z,7.80
2019-02-26T22:58:29.286Z,7.80
2019-02-26T23:01:30.771Z,7.75
2019-02-26T23:04:19.282Z,7.67
2019-02-26T23:06:51.984Z,7.67
2019-02-26T23:09:29.952Z,7.59
2019-02-26T23:12:07.433Z,7.53
2019-02-26T23:14:43.262Z,7.53
2019-02-26T23:17:19.397Z,7.53
2019-02-26T23:19:55.299Z,7.48
2019-02-26T23:22:38.796Z,7.43
2019-02-26T23:25:07.339Z,7.39
2019-02-26T23:27:42.299Z,7.33
2019-02-26T23:30:17.301Z,7.25
2019-02-26T23:33:01.835Z,7.25
2019-02-26T23:35:35.373Z,7.22
2019-02-26T23:38:46.389Z,7.16
2019-02-26T23:41:21.147Z,7.05
2019-02-26T23:43:55.817Z,7.05
2019-02-26T23:46:29.759Z,7.08
2019-02-26T23:49:11.799Z,7.00
2019-02-26T23:51:53.634Z,7.00
2019-02-26T23:54:28.318Z,6.98
2019-02-26T23:57:03.333Z,6.94
2019-02-26T23:59:52.395Z,6.89
